Bridgewater, New Jersey
Current Conditions -  °F | °C
As of 9:10 AM on Thursday 30 Oct 2014 (Local Time) from KSMQ Reporting Station
Haze Haze  
Wind Chill: 42°   Ceiling: 300
Heat Index: 42°   Visibility: 3mi
Dew Point: 41°   Wind: 0mph
Humidity: 96%   Direction: NA
Pressure: 30.01"   Gusts: NA
Location:  40.59°N, 74.62°W
Report Text: KSMQ 301310Z AUTO 00000KT 3SM BR BKN003 06/05 A3001 RMK AO2 T00560050
Loading
Personal Weather Stations






























Interactive Weather Map New forecast layout! Learn more

10-Day Weather Forecast

Advertisements
Track Severe Weather on mobile